createdAt,value
2018-04-14T00:00:17.283Z,8.20
2018-04-14T00:02:44.536Z,8.30
2018-04-14T00:05:11.805Z,8.30
2018-04-14T00:07:38.781Z,8.30
2018-04-14T00:10:06.043Z,8.30
2018-04-14T00:12:33.616Z,8.30
2018-04-14T00:14:59.814Z,8.30
2018-04-14T00:17:26.749Z,8.30
2018-04-14T00:19:53.539Z,8.20
2018-04-14T00:22:20.281Z,8.30
2018-04-14T00:24:46.514Z,8.30
2018-04-14T00:27:12.714Z,8.20
2018-04-14T00:29:39.361Z,8.30
2018-04-14T00:32:06.391Z,8.20
2018-04-14T00:34:33.333Z,8.20
2018-04-14T00:37:09.082Z,8.20
2018-04-14T00:39:36.116Z,8.10
2018-04-14T00:42:03.320Z,8.00
2018-04-14T00:44:30.590Z,7.90
2018-04-14T00:46:57.653Z,7.90
2018-04-14T00:49:24.670Z,7.90
2018-04-14T00:51:51.459Z,8.00
2018-04-14T00:54:18.514Z,8.00
2018-04-14T00:56:45.466Z,8.00
2018-04-14T00:59:12.712Z,8.00
2018-04-14T01:01:39.664Z,8.00
2018-04-14T01:04:06.546Z,8.00
2018-04-14T01:06:32.995Z,8.00
2018-04-14T01:09:00.481Z,8.00
2018-04-14T01:11:27.425Z,8.00
2018-04-14T01:13:54.501Z,8.00
2018-04-14T01:16:20.697Z,7.90
2018-04-14T01:18:48.726Z,7.90
2018-04-14T01:21:16.012Z,7.90
2018-04-14T01:23:43.561Z,7.80
2018-04-14T01:26:10.278Z,7.80
2018-04-14T01:28:36.847Z,7.80
2018-04-14T01:31:03.019Z,7.80
2018-04-14T01:33:29.832Z,7.90
2018-04-14T01:35:57.292Z,7.60
2018-04-14T01:38:24.335Z,7.60
2018-04-14T01:40:52.353Z,7.60
2018-04-14T01:43:19.386Z,7.70
2018-04-14T01:45:45.685Z,7.70
2018-04-14T01:48:13.684Z,7.70
2018-04-14T01:50:40.220Z,7.70
2018-04-14T01:53:07.211Z,7.60
2018-04-14T01:55:34.009Z,7.60
2018-04-14T01:58:01.233Z,7.40
2018-04-14T02:00:28.705Z,7.50
2018-04-14T02:02:56.357Z,7.50
2018-04-14T02:05:22.838Z,7.50
2018-04-14T02:07:49.942Z,7.50
2018-04-14T02:10:16.556Z,7.50
2018-04-14T02:12:43.514Z,7.50
2018-04-14T02:15:09.924Z,7.50
2018-04-14T02:17:36.878Z,7.40
2018-04-14T02:20:03.788Z,7.30
2018-04-14T02:22:30.819Z,7.30
2018-04-14T02:24:58.338Z,7.30
2018-04-14T02:27:25.426Z,7.30
2018-04-14T02:29:53.374Z,7.20
2018-04-14T02:32:19.892Z,7.20
2018-04-14T02:34:46.413Z,7.30
2018-04-14T02:37:13.950Z,7.20
2018-04-14T02:39:40.201Z,7.20
2018-04-14T02:42:08.512Z,7.20
2018-04-14T02:44:35.684Z,7.20
2018-04-14T02:47:02.652Z,7.20
2018-04-14T02:49:28.860Z,7.20
2018-04-14T02:51:55.561Z,7.10
2018-04-14T02:54:23.170Z,7.20
2018-04-14T02:56:49.566Z,7.10
2018-04-14T02:59:16.901Z,7.10
2018-04-14T03:01:43.955Z,7.00
2018-04-14T03:04:10.761Z,7.00
2018-04-14T03:06:36.949Z,7.10
2018-04-14T03:09:04.202Z,7.00
2018-04-14T03:11:31.194Z,7.10
2018-04-14T03:13:58.757Z,7.00
2018-04-14T03:16:25.694Z,7.00
2018-04-14T03:18:52.799Z,6.90
2018-04-14T03:21:19.870Z,6.80
2018-04-14T03:23:46.323Z,6.80
2018-04-14T03:26:12.505Z,6.80
2018-04-14T03:28:38.796Z,6.80
2018-04-14T03:31:05.562Z,6.90
2018-04-14T03:33:32.318Z,6.90
2018-04-14T03:35:58.908Z,6.90
2018-04-14T03:38:26.602Z,6.80
2018-04-14T03:40:54.096Z,6.70
2018-04-14T03:43:21.219Z,6.50
2018-04-14T03:45:48.909Z,6.50
2018-04-14T03:48:15.899Z,6.50
2018-04-14T03:50:42.239Z,6.50
2018-04-14T03:53:09.430Z,6.50
2018-04-14T03:55:36.173Z,6.50
2018-04-14T03:58:02.968Z,6.60
2018-04-14T04:00:29.170Z,6.70
2018-04-14T04:02:56.112Z,6.80
2018-04-14T04:05:23.632Z,6.70
2018-04-14T04:07:49.856Z,6.70
2018-04-14T04:10:16.725Z,6.70
2018-04-14T04:12:43.732Z,6.70
2018-04-14T04:15:11.239Z,6.80
2018-04-14T04:17:38.773Z,6.80
2018-04-14T04:20:19.096Z,6.80
2018-04-14T04:22:57.401Z,6.70
2018-04-14T04:25:35.838Z,6.70
2018-04-14T04:28:02.314Z,6.70
2018-04-14T04:30:30.262Z,6.60
2018-04-14T04:32:56.976Z,6.60
2018-04-14T04:35:24.006Z,6.60
2018-04-14T04:37:50.333Z,6.60
2018-04-14T04:40:17.081Z,6.60
2018-04-14T04:42:43.796Z,6.50
2018-04-14T04:45:11.061Z,6.50
2018-04-14T04:47:37.259Z,6.40
2018-04-14T04:50:04.526Z,6.40
2018-04-14T04:52:31.269Z,6.40
2018-04-14T04:54:57.855Z,6.50
2018-04-14T04:57:25.498Z,6.50
2018-04-14T04:59:52.372Z,6.50
2018-04-14T05:02:18.947Z,6.50
2018-04-14T05:04:46.216Z,7.10
2018-04-14T05:07:12.691Z,7.10
2018-04-14T05:09:40.263Z,7.50
2018-04-14T05:12:08.436Z,7.80
2018-04-14T05:14:34.689Z,7.80
2018-04-14T05:17:01.435Z,8.10
2018-04-14T05:19:27.661Z,8.40
2018-04-14T05:21:54.025Z,8.70
2018-04-14T05:24:20.803Z,8.60
2018-04-14T05:26:47.877Z,8.90
2018-04-14T05:29:14.145Z,8.90
2018-04-14T05:31:40.859Z,9.10
2018-04-14T05:34:07.127Z,9.00
2018-04-14T05:36:33.484Z,9.10
2018-04-14T05:39:00.841Z,9.50
2018-04-14T05:41:27.813Z,9.90
2018-04-14T05:43:54.170Z,9.80
2018-04-14T05:46:20.404Z,10.40
2018-04-14T05:48:47.462Z,10.90
2018-04-14T05:51:13.841Z,11.20
2018-04-14T05:53:40.232Z,11.50
2018-04-14T05:56:06.494Z,11.90
2018-04-14T05:58:32.822Z,12.40
2018-04-14T06:00:59.313Z,12.80
2018-04-14T06:03:26.306Z,13.60
2018-04-14T06:05:52.549Z,13.60
2018-04-14T06:08:19.314Z,14.00
2018-04-14T06:10:45.878Z,14.30
2018-04-14T06:13:12.876Z,14.80
2018-04-14T06:15:39.116Z,14.80
2018-04-14T06:18:06.513Z,15.20
2018-04-14T06:20:34.688Z,15.50
2018-04-14T06:23:01.809Z,15.50
2018-04-14T06:25:28.984Z,15.70
2018-04-14T06:27:55.249Z,15.70
2018-04-14T06:30:21.473Z,15.90
2018-04-14T06:32:47.685Z,15.80
2018-04-14T06:35:14.634Z,16.10
2018-04-14T06:37:41.699Z,16.30
2018-04-14T06:40:08.366Z,16.30
2018-04-14T06:42:36.083Z,16.50
2018-04-14T06:45:03.069Z,16.80
2018-04-14T06:47:29.893Z,16.80
2018-04-14T06:49:56.144Z,17.20
2018-04-14T06:52:22.428Z,17.70
2018-04-14T06:54:50.066Z,18.50
2018-04-14T06:57:17.140Z,18.90
2018-04-14T06:59:44.842Z,18.80
2018-04-14T07:02:11.218Z,19.10
2018-04-14T07:04:38.237Z,18.30
2018-04-14T07:07:06.052Z,18.30
2018-04-14T07:09:33.121Z,17.80
2018-04-14T07:11:59.351Z,17.80
2018-04-14T07:14:25.759Z,17.20
2018-04-14T07:16:52.665Z,16.60
2018-04-14T07:19:19.465Z,16.50
2018-04-14T07:21:46.012Z,16.10
2018-04-14T07:24:14.817Z,16.30
2018-04-14T07:26:41.662Z,16.30
2018-04-14T07:29:08.254Z,16.60
2018-04-14T07:31:35.070Z,17.10
2018-04-14T07:34:02.637Z,18.40
2018-04-14T07:36:29.012Z,18.30
2018-04-14T07:38:56.003Z,19.20
2018-04-14T07:41:23.168Z,19.70
2018-04-14T07:43:49.746Z,19.70
2018-04-14T07:46:17.606Z,20.20
2018-04-14T07:48:43.819Z,20.10
2018-04-14T07:51:10.563Z,20.20
2018-04-14T07:53:37.537Z,20.30
2018-04-14T07:56:04.545Z,20.30
2018-04-14T07:58:31.183Z,20.70
2018-04-14T08:00:57.444Z,21.00
2018-04-14T08:03:24.470Z,21.10
2018-04-14T08:05:50.752Z,21.20
2018-04-14T08:08:17.459Z,21.20
2018-04-14T08:10:44.165Z,20.60
2018-04-14T08:13:10.476Z,20.10
2018-04-14T08:15:38.561Z,19.50
2018-04-14T08:18:05.853Z,19.50
2018-04-14T08:20:32.045Z,19.80
2018-04-14T08:22:59.338Z,19.80
2018-04-14T08:25:26.158Z,19.50
2018-04-14T08:27:53.351Z,19.80
2018-04-14T08:30:19.554Z,20.20
2018-04-14T08:32:45.758Z,20.20
2018-04-14T08:35:12.217Z,19.70
2018-04-14T08:37:39.750Z,19.70
2018-04-14T08:40:06.019Z,19.70
2018-04-14T08:42:32.811Z,19.10
2018-04-14T08:44:59.109Z,19.10
2018-04-14T08:47:26.279Z,19.20
2018-04-14T08:49:53.878Z,19.20
2018-04-14T08:52:20.076Z,19.20
2018-04-14T08:54:46.580Z,19.40
2018-04-14T08:57:14.311Z,19.40
2018-04-14T08:59:40.522Z,19.40
2018-04-14T09:02:07.085Z,19.40
2018-04-14T09:04:33.965Z,19.30
2018-04-14T09:07:00.703Z,19.20
2018-04-14T09:09:27.675Z,19.20
2018-04-14T09:11:54.797Z,19.30
2018-04-14T09:14:22.214Z,19.30
2018-04-14T09:16:48.674Z,19.20
2018-04-14T09:19:15.751Z,20.00
2018-04-14T09:21:42.509Z,19.90
2018-04-14T09:24:09.505Z,19.40
2018-04-14T09:26:37.084Z,19.60
2018-04-14T09:29:04.220Z,19.50
2018-04-14T09:31:31.779Z,19.50
2018-04-14T09:33:58.477Z,19.50
2018-04-14T09:36:25.371Z,19.30
2018-04-14T09:38:51.649Z,19.40
2018-04-14T09:41:18.400Z,19.40
2018-04-14T09:43:45.177Z,19.40
2018-04-14T09:46:12.414Z,19.60
2018-04-14T09:48:40.168Z,19.70
2018-04-14T09:51:07.152Z,20.10
2018-04-14T09:53:34.363Z,20.00
2018-04-14T09:56:00.611Z,20.00
2018-04-14T09:58:28.498Z,19.70
2018-04-14T10:01:01.145Z,19.70
2018-04-14T10:03:28.005Z,19.70
2018-04-14T10:05:54.249Z,19.90
2018-04-14T10:08:21.107Z,20.10
2018-04-14T10:10:48.246Z,20.30
2018-04-14T10:13:14.442Z,20.20
2018-04-14T10:15:42.074Z,20.30
2018-04-14T10:18:08.387Z,20.30
2018-04-14T10:20:35.132Z,20.30
2018-04-14T10:23:01.828Z,20.10
2018-04-14T10:25:29.067Z,20.10
2018-04-14T10:28:03.970Z,20.00
2018-04-14T10:30:30.747Z,20.10
2018-04-14T10:32:56.930Z,20.50
2018-04-14T10:35:26.065Z,20.50
2018-04-14T10:37:53.914Z,20.70
2018-04-14T10:40:20.064Z,20.70
2018-04-14T10:42:46.622Z,20.70
2018-04-14T10:45:13.655Z,20.50
2018-04-14T10:47:39.875Z,20.40
2018-04-14T10:50:06.290Z,20.80
2018-04-14T10:52:33.057Z,20.90
2018-04-14T10:54:59.434Z,20.70
2018-04-14T10:57:26.170Z,20.80
2018-04-14T10:59:52.568Z,20.60
2018-04-14T11:02:19.941Z,20.90
2018-04-14T11:04:47.524Z,20.60
2018-04-14T11:07:13.942Z,20.60
2018-04-14T11:09:40.989Z,20.70
2018-04-14T11:12:08.290Z,20.70
2018-04-14T11:14:35.473Z,21.40
2018-04-14T11:17:02.622Z,21.10
2018-04-14T11:19:29.982Z,21.10
2018-04-14T11:21:57.697Z,21.30
2018-04-14T11:24:24.961Z,21.20
2018-04-14T11:26:51.997Z,21.40
2018-04-14T11:29:19.511Z,21.60
2018-04-14T11:31:45.972Z,21.60
2018-04-14T11:34:14.148Z,22.30
2018-04-14T11:36:40.337Z,22.30
2018-04-14T11:39:07.095Z,22.40
2018-04-14T11:41:33.963Z,22.50
2018-04-14T11:44:01.345Z,23.10
2018-04-14T11:46:28.196Z,23.00
2018-04-14T11:48:55.072Z,22.80
2018-04-14T11:51:22.317Z,23.00
2018-04-14T11:53:49.311Z,22.80
2018-04-14T11:56:16.794Z,22.50
2018-04-14T11:58:43.585Z,22.50
2018-04-14T12:01:09.780Z,22.30
2018-04-14T12:03:36.276Z,22.30
2018-04-14T12:06:03.305Z,22.70
2018-04-14T12:08:30.250Z,22.60
2018-04-14T12:10:56.462Z,22.60
2018-04-14T12:13:22.682Z,22.80
2018-04-14T12:15:48.924Z,22.80
2018-04-14T12:18:15.143Z,22.70
2018-04-14T12:20:41.326Z,22.80
2018-04-14T12:23:08.103Z,22.80
2018-04-14T12:25:34.443Z,22.50
2018-04-14T12:28:01.277Z,22.30
2018-04-14T12:30:27.460Z,22.30
2018-04-14T12:32:54.107Z,22.30
2018-04-14T12:35:21.193Z,22.30
2018-04-14T12:37:47.413Z,22.30
2018-04-14T12:40:13.634Z,22.30
2018-04-14T12:42:40.753Z,22.20
2018-04-14T12:45:07.077Z,22.00
2018-04-14T12:47:33.972Z,21.80
2018-04-14T12:50:00.961Z,22.30
2018-04-14T12:52:27.428Z,22.30
2018-04-14T12:54:54.673Z,22.20
2018-04-14T12:57:21.297Z,22.20
2018-04-14T12:59:48.656Z,22.30
2018-04-14T13:02:15.394Z,22.70
2018-04-14T13:04:42.193Z,22.90
2018-04-14T13:07:09.753Z,22.60
2018-04-14T13:09:36.694Z,22.80
2018-04-14T13:12:03.643Z,22.80
2018-04-14T13:14:31.218Z,22.50
2018-04-14T13:16:58.999Z,22.70
2018-04-14T13:19:25.281Z,22.70
2018-04-14T13:21:51.507Z,22.60
2018-04-14T13:24:18.830Z,22.80
2018-04-14T13:26:45.080Z,23.00
2018-04-14T13:29:11.249Z,23.10
2018-04-14T13:31:38.199Z,23.10
2018-04-14T13:34:05.433Z,23.10
2018-04-14T13:36:32.397Z,22.60
2018-04-14T13:38:59.842Z,22.60
2018-04-14T13:41:27.527Z,22.20
2018-04-14T13:43:54.869Z,22.20
2018-04-14T13:46:21.612Z,22.30
2018-04-14T13:48:48.289Z,22.50
2018-04-14T13:51:15.923Z,22.60
2018-04-14T13:53:42.142Z,22.60
2018-04-14T13:56:08.464Z,22.60
2018-04-14T13:58:34.792Z,22.30
2018-04-14T14:01:01.009Z,22.30
2018-04-14T14:03:28.691Z,22.40
2018-04-14T14:05:56.358Z,22.50
2018-04-14T14:08:23.076Z,22.50
2018-04-14T14:10:50.564Z,22.60
2018-04-14T14:13:16.770Z,22.60
2018-04-14T14:15:43.012Z,22.50
2018-04-14T14:18:10.291Z,22.50
2018-04-14T14:20:37.267Z,22.00
2018-04-14T14:23:04.267Z,22.00
2018-04-14T14:25:45.326Z,21.90
2018-04-14T14:28:12.205Z,21.90
2018-04-14T14:30:39.005Z,22.20
2018-04-14T14:33:05.218Z,22.30
2018-04-14T14:35:32.668Z,22.30
2018-04-14T14:37:59.422Z,22.30
2018-04-14T14:40:26.272Z,22.50
2018-04-14T14:42:53.033Z,22.50
2018-04-14T14:45:19.424Z,22.40
2018-04-14T14:47:47.156Z,22.50
2018-04-14T14:50:20.043Z,22.50
2018-04-14T14:52:46.838Z,22.60
2018-04-14T14:55:13.067Z,22.80
2018-04-14T14:57:40.202Z,22.90
2018-04-14T15:00:06.645Z,23.00
2018-04-14T15:02:34.809Z,23.00
2018-04-14T15:05:01.240Z,23.00
2018-04-14T15:07:27.567Z,23.10
2018-04-14T15:09:54.535Z,23.00
2018-04-14T15:12:21.330Z,23.00
2018-04-14T15:14:47.606Z,22.70
2018-04-14T15:17:14.291Z,22.30
2018-04-14T15:19:40.570Z,22.20
2018-04-14T15:22:06.780Z,22.00
2018-04-14T15:24:33.082Z,22.00
2018-04-14T15:27:00.086Z,22.20
2018-04-14T15:29:26.333Z,22.30
2018-04-14T15:31:53.354Z,22.40
2018-04-14T15:34:20.280Z,22.40
2018-04-14T15:36:46.849Z,22.30
2018-04-14T15:39:13.838Z,22.00
2018-04-14T15:41:41.021Z,21.90
2018-04-14T15:44:09.492Z,21.60
2018-04-14T15:46:36.079Z,21.60
2018-04-14T15:49:02.404Z,21.50
2018-04-14T15:51:28.746Z,21.40
2018-04-14T15:53:55.004Z,21.30
2018-04-14T15:56:22.074Z,21.10
2018-04-14T15:58:48.303Z,21.10
2018-04-14T16:01:15.229Z,21.10
2018-04-14T16:03:44.725Z,21.10
2018-04-14T16:06:08.738Z,21.10
2018-04-14T16:08:36.013Z,21.00
2018-04-14T16:11:03.004Z,21.10
2018-04-14T16:13:30.249Z,20.90
2018-04-14T16:15:57.186Z,20.90
2018-04-14T16:18:24.629Z,20.90
2018-04-14T16:20:50.883Z,20.80
2018-04-14T16:23:17.072Z,20.80
2018-04-14T16:25:43.275Z,20.80
2018-04-14T16:28:09.861Z,20.90
2018-04-14T16:30:37.480Z,20.70
2018-04-14T16:33:05.588Z,20.60
2018-04-14T16:35:32.391Z,20.60
2018-04-14T16:37:59.052Z,20.60
2018-04-14T16:40:25.914Z,20.60
2018-04-14T16:42:53.254Z,20.50
2018-04-14T16:45:20.900Z,20.50
2018-04-14T16:47:48.028Z,20.50
2018-04-14T16:50:15.238Z,20.50
2018-04-14T16:52:42.279Z,20.40
2018-04-14T16:55:09.257Z,20.20
2018-04-14T16:57:36.273Z,20.20
2018-04-14T17:00:04.242Z,20.00
2018-04-14T17:02:31.223Z,20.10
2018-04-14T17:04:57.580Z,20.10
2018-04-14T17:07:24.434Z,20.10
2018-04-14T17:09:50.775Z,20.10
2018-04-14T17:12:17.307Z,20.10
2018-04-14T17:14:43.624Z,20.10
2018-04-14T17:17:10.481Z,20.10
2018-04-14T17:19:36.794Z,20.00
2018-04-14T17:22:02.989Z,20.00
2018-04-14T17:24:29.861Z,20.00
2018-04-14T17:26:57.124Z,19.90
2018-04-14T17:29:24.428Z,19.80
2018-04-14T17:31:52.056Z,19.80
2018-04-14T17:34:19.673Z,19.70
2018-04-14T17:36:46.452Z,19.70
2018-04-14T17:39:14.029Z,19.50
2018-04-14T17:41:40.269Z,19.50
2018-04-14T17:44:06.803Z,19.50
2018-04-14T17:46:35.369Z,19.20
2018-04-14T17:49:02.751Z,19.00
2018-04-14T17:51:30.105Z,18.90
2018-04-14T17:53:57.137Z,18.90
2018-04-14T17:56:23.481Z,18.80
2018-04-14T17:58:50.671Z,18.50
2018-04-14T18:01:16.949Z,18.50
2018-04-14T18:03:43.939Z,18.30
2018-04-14T18:06:10.813Z,18.30
2018-04-14T18:08:37.728Z,18.20
2018-04-14T18:11:05.309Z,18.00
2018-04-14T18:13:32.986Z,17.90
2018-04-14T18:16:00.012Z,17.80
2018-04-14T18:18:26.300Z,17.80
2018-04-14T18:20:52.632Z,17.70
2018-04-14T18:23:19.974Z,17.60
2018-04-14T18:25:46.762Z,17.50
2018-04-14T18:28:13.717Z,17.20
2018-04-14T18:30:40.730Z,17.10
2018-04-14T18:33:07.539Z,17.10
2018-04-14T18:35:34.265Z,16.90
2018-04-14T18:38:01.254Z,16.90
2018-04-14T18:40:28.296Z,16.90
2018-04-14T18:42:55.480Z,16.90
2018-04-14T18:45:22.071Z,16.90
2018-04-14T18:47:48.390Z,16.80
2018-04-14T18:50:14.888Z,16.70
2018-04-14T18:52:42.266Z,16.50
2018-04-14T18:55:09.035Z,16.50
2018-04-14T18:57:36.471Z,16.40
2018-04-14T19:00:04.161Z,16.30
2018-04-14T19:02:31.337Z,16.30
2018-04-14T19:04:58.910Z,16.10
2018-04-14T19:07:25.879Z,16.10
2018-04-14T19:09:52.534Z,16.00
2018-04-14T19:12:19.488Z,16.00
2018-04-14T19:14:46.599Z,15.90
2018-04-14T19:17:13.724Z,15.80
2018-04-14T19:19:40.915Z,15.70
2018-04-14T19:22:07.526Z,15.60
2018-04-14T19:24:34.644Z,15.50
2018-04-14T19:27:02.010Z,15.40
2018-04-14T19:29:28.387Z,15.30
2018-04-14T19:31:55.358Z,14.80
2018-04-14T19:34:22.685Z,14.80
2018-04-14T19:36:50.976Z,14.40
2018-04-14T19:39:17.494Z,14.40
2018-04-14T19:41:43.840Z,14.50
2018-04-14T19:44:10.355Z,14.60
2018-04-14T19:46:37.481Z,14.50
2018-04-14T19:49:03.998Z,14.50
2018-04-14T19:51:30.470Z,14.40
2018-04-14T19:53:58.087Z,14.20
2018-04-14T19:56:25.517Z,14.10
2018-04-14T19:58:52.405Z,14.10
2018-04-14T20:01:18.589Z,14.10
2018-04-14T20:03:45.465Z,14.00
2018-04-14T20:06:12.167Z,14.00
2018-04-14T20:08:38.536Z,14.00
2018-04-14T20:11:05.497Z,13.90
2018-04-14T20:13:33.209Z,13.70
2018-04-14T20:15:59.503Z,13.70
2018-04-14T20:18:27.007Z,13.80
2018-04-14T20:20:53.568Z,13.80
2018-04-14T20:23:20.336Z,13.80
2018-04-14T20:25:48.329Z,13.80
2018-04-14T20:28:14.537Z,13.70
2018-04-14T20:30:41.486Z,13.70
2018-04-14T20:33:08.810Z,13.70
2018-04-14T20:35:38.815Z,13.70
2018-04-14T20:38:05.135Z,13.70
2018-04-14T20:40:31.470Z,13.70
2018-04-14T20:42:58.271Z,13.70
2018-04-14T20:45:24.856Z,13.60
2018-04-14T20:47:53.774Z,13.70
2018-04-14T20:50:21.211Z,13.60
2018-04-14T20:52:48.604Z,13.60
2018-04-14T20:55:15.521Z,13.50
2018-04-14T20:57:42.198Z,13.50
2018-04-14T21:00:08.926Z,13.50
2018-04-14T21:02:35.287Z,13.40
2018-04-14T21:05:02.647Z,13.40
2018-04-14T21:07:29.633Z,13.20
2018-04-14T21:09:56.372Z,13.20
2018-04-14T21:12:23.329Z,13.20
2018-04-14T21:14:50.883Z,13.00
2018-04-14T21:17:17.889Z,13.10
2018-04-14T21:19:44.208Z,13.00
2018-04-14T21:22:11.822Z,13.10
2018-04-14T21:24:38.919Z,13.10
2018-04-14T21:27:05.716Z,13.10
2018-04-14T21:29:31.917Z,13.10
2018-04-14T21:31:58.718Z,13.00
2018-04-14T21:34:25.492Z,12.80
2018-04-14T21:36:52.373Z,12.80
2018-04-14T21:39:19.335Z,12.80
2018-04-14T21:41:46.739Z,12.80
2018-04-14T21:44:12.978Z,12.80
2018-04-14T21:46:40.599Z,12.80
2018-04-14T21:49:07.050Z,12.80
2018-04-14T21:51:33.364Z,12.80
2018-04-14T21:54:00.100Z,12.60
2018-04-14T21:56:26.589Z,12.40
2018-04-14T21:58:53.862Z,12.50
2018-04-14T22:01:20.090Z,12.50
2018-04-14T22:03:47.196Z,12.40
2018-04-14T22:06:14.265Z,12.50
2018-04-14T22:08:41.518Z,12.40
2018-04-14T22:11:07.864Z,12.40
2018-04-14T22:13:41.270Z,12.50
2018-04-14T22:16:07.993Z,12.50
2018-04-14T22:18:34.239Z,12.50
2018-04-14T22:21:00.719Z,12.40
2018-04-14T22:23:27.706Z,12.30
2018-04-14T22:25:53.901Z,12.30
2018-04-14T22:28:20.097Z,12.30
2018-04-14T22:30:46.940Z,12.20
2018-04-14T22:33:13.219Z,12.20
2018-04-14T22:35:40.768Z,12.20
2018-04-14T22:38:09.236Z,12.10
2018-04-14T22:40:35.970Z,12.10
2018-04-14T22:43:02.169Z,12.10
2018-04-14T22:45:29.117Z,12.00
2018-04-14T22:47:55.822Z,11.90
2018-04-14T22:50:22.299Z,11.90
2018-04-14T22:52:50.566Z,11.90
2018-04-14T22:55:16.759Z,11.90
2018-04-14T22:57:43.367Z,11.90
2018-04-14T23:00:11.071Z,11.80
2018-04-14T23:02:38.100Z,11.80
2018-04-14T23:05:04.403Z,11.70
2018-04-14T23:07:30.907Z,11.70
2018-04-14T23:09:57.904Z,11.60
2018-04-14T23:12:25.277Z,11.60
2018-04-14T23:14:51.465Z,11.60
2018-04-14T23:17:19.242Z,11.60
2018-04-14T23:19:46.695Z,11.60
2018-04-14T23:22:13.710Z,11.60
2018-04-14T23:24:40.436Z,11.50
2018-04-14T23:27:07.037Z,11.60
2018-04-14T23:29:33.774Z,11.60
2018-04-14T23:32:00.570Z,11.60
2018-04-14T23:34:26.786Z,11.60
2018-04-14T23:36:52.979Z,11.60
2018-04-14T23:39:19.203Z,11.60
2018-04-14T23:41:46.026Z,11.70
2018-04-14T23:44:13.650Z,11.60
2018-04-14T23:46:40.393Z,11.60
2018-04-14T23:49:06.586Z,11.70
2018-04-14T23:51:33.626Z,11.70
2018-04-14T23:54:00.728Z,11.60
2018-04-14T23:56:26.978Z,11.60
2018-04-14T23:58:53.981Z,11.60
